Time;durP1;ratioP1;P1;durP2;ratioP2;P2;SDS_P1;SDS_P2;PMS_P1;PMS_P2;Temp;Humidity;BMP_temperature;BMP_pressure;BME280_temperature;BME280_humidity;BME280_pressure;Samples;Min_cycle;Max_cycle;Signal;HPM_P1;HPM_P2
2021/01/20 00:00:00;;;;;;;43.20;22.80;;;2.30;99.90;;;;;;5028651;28;20155;-54
2021/01/20 00:02:26;;;;;;;35.42;20.83;;;2.30;99.90;;;;;;5026437;28;20412;-56
2021/01/20 00:04:52;;;;;;;39.03;21.52;;;2.40;99.90;;;;;;5027059;28;20044;-57
2021/01/20 00:07:18;;;;;;;45.13;22.27;;;2.40;99.90;;;;;;5026569;28;20029;-54
2021/01/20 00:09:44;;;;;;;41.22;21.60;;;2.50;99.90;;;;;;5027674;28;20107;-52
2021/01/20 00:12:10;;;;;;;40.15;22.77;;;2.40;99.90;;;;;;5025249;28;20482;-57
2021/01/20 00:14:35;;;;;;;42.90;22.52;;;2.40;99.90;;;;;;5026909;28;20161;-56
2021/01/20 00:20:07;;;;;;;35.97;20.13;;;2.50;99.90;;;;;;5009175;28;20053;-57
2021/01/20 00:22:32;;;;;;;36.92;21.05;;;2.50;99.90;;;;;;5012359;28;20436;-55
2021/01/20 00:24:58;;;;;;;41.03;20.83;;;2.50;99.90;;;;;;5018660;28;20099;-59
2021/01/20 00:27:24;;;;;;;39.05;19.98;;;2.50;99.90;;;;;;5009993;28;20046;-53
2021/01/20 00:29:49;;;;;;;39.75;20.63;;;2.50;99.90;;;;;;5028122;28;20466;-53
2021/01/20 00:32:15;;;;;;;44.10;24.63;;;2.50;99.90;;;;;;5026852;28;20060;-51
2021/01/20 00:34:41;;;;;;;43.35;20.90;;;2.50;99.90;;;;;;5023785;28;20033;-56
2021/01/20 00:37:07;;;;;;;39.15;21.10;;;2.50;99.90;;;;;;5025041;28;20037;-54
2021/01/20 00:39:33;;;;;;;40.83;20.23;;;2.40;99.90;;;;;;5028386;28;20045;-55
2021/01/20 00:41:59;;;;;;;38.03;21.38;;;2.40;99.90;;;;;;5026929;28;20045;-57
2021/01/20 00:44:25;;;;;;;43.63;23.55;;;2.30;99.90;;;;;;5026912;28;20068;-57
2021/01/20 00:46:50;;;;;;;38.05;20.75;;;2.30;99.90;;;;;;5028190;28;20041;-55
2021/01/20 00:49:16;;;;;;;39.03;21.55;;;2.50;99.90;;;;;;5027246;28;20372;-52
2021/01/20 00:51:42;;;;;;;49.03;22.15;;;2.50;99.90;;;;;;5027071;28;20037;-55
2021/01/20 00:54:08;;;;;;;40.10;22.63;;;2.60;99.90;;;;;;5008373;28;20045;-54
2021/01/20 00:56:33;;;;;;;38.05;20.63;;;2.60;99.90;;;;;;5011330;28;20044;-52
2021/01/20 00:58:59;;;;;;;36.50;20.85;;;2.60;99.90;;;;;;5028245;28;20022;-55
2021/01/20 01:01:25;;;;;;;36.42;20.13;;;2.60;99.90;;;;;;5028899;28;20033;-55
2021/01/20 01:03:51;;;;;;;37.33;20.90;;;2.50;99.90;;;;;;5027015;28;20501;-56
2021/01/20 01:06:16;;;;;;;39.65;20.55;;;2.50;99.90;;;;;;5029873;28;20175;-56
2021/01/20 01:08:42;;;;;;;41.78;22.70;;;2.50;99.90;;;;;;5031808;28;20112;-54
2021/01/20 01:11:08;;;;;;;42.47;22.30;;;2.50;99.90;;;;;;5030491;28;20149;-54
2021/01/20 01:13:34;;;;;;;39.17;21.73;;;2.50;99.90;;;;;;5030214;28;20187;-57
2021/01/20 01:16:00;;;;;;;34.90;20.95;;;2.50;99.90;;;;;;5030778;28;20041;-53
2021/01/20 01:18:25;;;;;;;37.10;20.70;;;2.50;99.90;;;;;;5030619;28;20057;-55
2021/01/20 01:20:51;;;;;;;36.45;23.40;;;2.50;99.90;;;;;;5031619;28;20032;-57
2021/01/20 01:23:17;;;;;;;42.25;22.50;;;2.50;99.90;;;;;;5029306;28;20146;-56
2021/01/20 01:25:42;;;;;;;41.50;24.17;;;2.60;99.90;;;;;;5031301;28;20104;-57
2021/01/20 01:28:13;;;;;;;37.58;22.65;;;2.70;99.90;;;;;;5030084;28;20037;-52
2021/01/20 01:30:39;;;;;;;39.05;21.38;;;2.80;99.90;;;;;;5031112;28;20029;-57
2021/01/20 01:33:07;;;;;;;39.67;23.25;;;2.70;99.90;;;;;;5030180;28;20040;-55
2021/01/20 01:35:33;;;;;;;38.75;21.77;;;2.70;99.90;;;;;;5030969;28;20084;-55
2021/01/20 01:37:59;;;;;;;37.22;21.05;;;2.70;99.90;;;;;;5029169;28;20128;-57
2021/01/20 01:40:25;;;;;;;42.33;21.95;;;2.70;99.90;;;;;;5030922;28;20026;-54
2021/01/20 01:42:51;;;;;;;37.67;21.88;;;2.70;99.90;;;;;;5029820;28;20045;-57
2021/01/20 01:45:16;;;;;;;39.78;21.50;;;2.70;99.90;;;;;;5031079;28;20041;-57
2021/01/20 01:47:45;;;;;;;43.15;24.08;;;2.80;99.90;;;;;;5029824;28;20545;-55
2021/01/20 01:50:12;;;;;;;40.50;22.10;;;2.90;99.90;;;;;;5030029;28;20095;-57
2021/01/20 01:52:38;;;;;;;41.45;22.30;;;2.90;99.90;;;;;;5029490;28;20065;-56
2021/01/20 01:55:06;;;;;;;37.53;20.98;;;2.90;99.90;;;;;;5030638;28;20083;-53
2021/01/20 01:57:32;;;;;;;36.58;21.45;;;2.90;99.90;;;;;;5029141;28;20049;-56
2021/01/20 01:59:58;;;;;;;38.53;20.70;;;2.90;99.90;;;;;;5029644;28;20079;-55
2021/01/20 02:02:23;;;;;;;36.33;21.05;;;2.80;99.90;;;;;;5030450;28;20454;-55
2021/01/20 02:04:49;;;;;;;37.20;21.13;;;2.80;99.90;;;;;;5029579;28;20036;-55
2021/01/20 02:07:15;;;;;;;42.92;21.02;;;2.80;99.90;;;;;;5030589;28;20048;-56
2021/01/20 02:09:41;;;;;;;38.72;20.67;;;2.80;99.90;;;;;;5029262;28;20041;-53
2021/01/20 02:12:25;;;;;;;40.80;21.77;;;2.80;99.90;;;;;;5027528;28;20095;-53
2021/01/20 02:15:12;;;;;;;36.72;21.23;;;2.90;99.90;;;;;;5030301;28;20039;-55
2021/01/20 02:17:54;;;;;;;40.58;21.42;;;2.80;99.90;;;;;;5028816;28;20041;-55
2021/01/20 02:20:46;;;;;;;41.58;21.77;;;2.90;99.90;;;;;;5026289;28;20035;-56
2021/01/20 02:23:19;;;;;;;40.17;21.58;;;2.80;99.90;;;;;;5027816;28;20037;-57
2021/01/20 02:26:23;;;;;;;38.78;20.73;;;2.80;99.90;;;;;;5029188;28;20083;-56
2021/01/20 02:29:17;;;;;;;35.97;20.20;;;2.90;99.90;;;;;;5028968;28;20511;-55
2021/01/20 02:31:44;;;;;;;39.95;20.38;;;2.80;99.90;;;;;;5030308;28;20041;-57
2021/01/20 02:34:13;;;;;;;37.67;20.23;;;2.80;99.90;;;;;;5028882;28;20493;-53
2021/01/20 02:36:40;;;;;;;41.17;21.85;;;2.80;99.90;;;;;;5029719;28;20033;-55
2021/01/20 02:39:07;;;;;;;37.58;20.92;;;2.90;99.90;;;;;;5028560;28;20038;-56
2021/01/20 02:44:05;;;;;;;35.28;19.98;;;2.80;99.90;;;;;;5040936;28;20396;-57
2021/01/20 02:46:31;;;;;;;40.22;21.38;;;2.90;99.90;;;;;;5029464;28;20029;-56
2021/01/20 02:48:59;;;;;;;36.58;20.60;;;2.90;99.90;;;;;;5027418;28;20180;-55
2021/01/20 02:52:06;;;;;;;36.97;20.02;;;2.90;99.90;;;;;;5011555;28;20030;-55
2021/01/20 02:54:34;;;;;;;38.40;20.05;;;2.90;99.90;;;;;;4948495;29;20050;-56
2021/01/20 02:57:01;;;;;;;40.25;21.20;;;2.80;99.90;;;;;;4949767;28;20051;-53
2021/01/20 02:59:29;;;;;;;38.03;19.73;;;2.90;99.90;;;;;;4965193;28;20054;-54
2021/01/20 03:02:00;;;;;;;40.08;21.05;;;2.90;99.90;;;;;;4961218;28;20355;-57
2021/01/20 03:04:27;;;;;;;39.25;21.38;;;2.90;99.90;;;;;;4967869;28;20093;-54
2021/01/20 03:06:56;;;;;;;33.92;19.95;;;2.90;99.90;;;;;;4965399;28;20030;-57
2021/01/20 03:09:22;;;;;;;40.20;22.30;;;2.90;99.90;;;;;;4967641;28;20053;-55
2021/01/20 03:11:49;;;;;;;39.58;22.08;;;2.90;99.90;;;;;;4959930;28;20043;-57
2021/01/20 03:14:30;;;;;;;42.80;19.73;;;3.00;99.90;;;;;;4948373;29;20058;-55
2021/01/20 03:16:55;;;;;;;35.03;19.40;;;3.00;99.90;;;;;;4943491;28;20051;-57
2021/01/20 03:19:21;;;;;;;32.35;19.55;;;3.00;99.90;;;;;;4929134;29;20075;-55
2021/01/20 03:21:47;;;;;;;37.92;19.95;;;2.90;99.90;;;;;;4932746;28;20064;-58
2021/01/20 03:24:12;;;;;;;36.05;20.70;;;2.90;99.90;;;;;;4948154;28;20273;-57
2021/01/20 03:26:38;;;;;;;34.95;19.75;;;3.00;99.90;;;;;;4947171;29;20589;-56
2021/01/20 03:29:04;;;;;;;41.33;21.02;;;3.00;99.90;;;;;;4947076;28;20054;-55
2021/01/20 03:31:30;;;;;;;40.75;21.23;;;2.90;99.90;;;;;;5009434;28;20124;-56
2021/01/20 03:33:55;;;;;;;35.75;20.90;;;2.90;99.90;;;;;;5027494;28;20037;-55
2021/01/20 03:36:21;;;;;;;38.22;19.88;;;2.90;99.90;;;;;;5028487;28;20037;-57
2021/01/20 03:38:47;;;;;;;40.17;21.38;;;2.90;99.90;;;;;;5009269;28;20073;-54
2021/01/20 03:41:13;;;;;;;39.45;20.90;;;2.90;99.90;;;;;;5029017;28;20041;-55
2021/01/20 03:43:38;;;;;;;35.67;19.50;;;2.90;99.90;;;;;;5011474;28;20157;-55
2021/01/20 03:46:04;;;;;;;36.67;20.05;;;2.90;99.90;;;;;;5025165;28;20040;-57
2021/01/20 03:48:30;;;;;;;38.72;20.17;;;2.90;99.90;;;;;;5013224;28;20076;-55
2021/01/20 03:50:55;;;;;;;37.30;20.88;;;2.90;99.90;;;;;;5008847;28;20038;-56
2021/01/20 03:53:21;;;;;;;35.65;20.00;;;2.90;99.90;;;;;;5011022;28;20114;-55
2021/01/20 03:55:47;;;;;;;33.10;19.95;;;2.90;99.90;;;;;;5009071;28;20397;-56
2021/01/20 03:58:13;;;;;;;40.53;21.45;;;2.90;99.90;;;;;;5005302;28;20049;-55
2021/01/20 04:00:39;;;;;;;37.83;20.45;;;2.90;99.90;;;;;;5008762;28;20131;-55
2021/01/20 04:03:05;;;;;;;37.25;19.20;;;2.90;99.90;;;;;;5001545;28;20521;-55
2021/01/20 04:05:31;;;;;;;37.05;20.15;;;3.00;99.90;;;;;;5008615;28;20045;-57
2021/01/20 04:07:57;;;;;;;38.70;19.70;;;3.00;99.90;;;;;;5006323;28;20369;-56
2021/01/20 04:10:23;;;;;;;32.90;19.30;;;3.00;99.90;;;;;;4997523;28;20038;-52
2021/01/20 04:12:48;;;;;;;37.20;19.83;;;3.00;99.90;;;;;;5005923;28;20547;-55
2021/01/20 04:15:14;;;;;;;35.13;19.13;;;3.00;99.90;;;;;;4990294;28;20084;-55
2021/01/20 04:17:40;;;;;;;36.10;19.15;;;3.00;99.90;;;;;;5013691;28;20346;-56
2021/01/20 04:20:07;;;;;;;35.63;19.45;;;3.00;99.90;;;;;;5017064;28;20041;-56
2021/01/20 04:22:34;;;;;;;36.80;18.60;;;3.00;99.90;;;;;;5006403;28;20092;-57
2021/01/20 04:25:00;;;;;;;32.97;19.00;;;2.90;99.90;;;;;;5022023;28;20164;-56
2021/01/20 04:27:26;;;;;;;40.17;20.95;;;2.90;99.90;;;;;;5028316;28;20124;-53
2021/01/20 04:29:51;;;;;;;35.15;18.58;;;2.90;99.90;;;;;;5010029;28;20033;-51
2021/01/20 04:32:17;;;;;;;34.40;19.48;;;2.90;99.90;;;;;;5017173;28;20094;-56
2021/01/20 04:34:43;;;;;;;35.63;20.80;;;2.90;99.90;;;;;;5028254;28;20045;-54
2021/01/20 04:37:08;;;;;;;41.05;20.70;;;2.90;99.90;;;;;;5016118;28;20535;-55
2021/01/20 04:39:34;;;;;;;38.30;21.83;;;2.90;99.90;;;;;;5012468;28;20041;-55
2021/01/20 04:42:00;;;;;;;40.65;20.77;;;2.90;99.90;;;;;;5011320;28;20045;-57
2021/01/20 04:44:26;;;;;;;37.65;20.00;;;2.90;99.90;;;;;;5030841;28;20057;-55
2021/01/20 04:46:52;;;;;;;42.67;19.52;;;2.90;99.90;;;;;;5029756;28;20114;-57
2021/01/20 04:49:19;;;;;;;31.65;17.52;;;2.80;99.90;;;;;;5031837;28;20496;-56
2021/01/20 04:51:49;;;;;;;35.20;18.90;;;2.90;99.90;;;;;;5026687;28;20044;-55
2021/01/20 04:54:16;;;;;;;32.15;18.67;;;2.80;99.90;;;;;;5031843;28;20037;-56
2021/01/20 04:56:43;;;;;;;35.72;19.67;;;2.80;99.90;;;;;;5029922;28;20045;-54
2021/01/20 04:59:09;;;;;;;36.13;19.33;;;2.80;99.90;;;;;;5025648;28;20033;-57
2021/01/20 05:01:36;;;;;;;32.70;19.33;;;2.70;99.90;;;;;;5025136;28;20121;-55
2021/01/20 05:04:03;;;;;;;36.67;19.23;;;2.70;99.90;;;;;;5027497;28;20112;-54
2021/01/20 05:06:30;;;;;;;34.72;20.50;;;2.70;99.90;;;;;;5027714;28;20042;-54
2021/01/20 05:08:56;;;;;;;33.78;19.55;;;2.70;99.90;;;;;;5026972;28;20079;-51
2021/01/20 05:11:40;;;;;;;39.28;18.40;;;2.50;99.90;;;;;;5022725;28;20038;-54
2021/01/20 05:14:17;;;;;;;32.60;18.52;;;2.50;99.90;;;;;;5028411;28;20444;-56
2021/01/20 05:16:44;;;;;;;32.20;19.15;;;2.50;99.90;;;;;;5031347;28;20046;-54
2021/01/20 05:19:10;;;;;;;32.38;18.38;;;2.60;99.90;;;;;;5028251;28;20075;-53
2021/01/20 05:21:37;;;;;;;37.72;19.90;;;2.60;99.90;;;;;;5031177;28;20112;-55
2021/01/20 05:24:21;;;;;;;33.42;19.20;;;2.60;99.90;;;;;;5025829;28;20040;-52
2021/01/20 05:26:48;;;;;;;35.47;19.65;;;2.60;99.90;;;;;;5031561;28;20057;-56
2021/01/20 05:29:15;;;;;;;37.72;20.10;;;2.60;99.90;;;;;;5028930;28;20029;-53
2021/01/20 05:31:41;;;;;;;35.63;19.08;;;2.70;99.90;;;;;;5023290;28;20065;-52
2021/01/20 05:34:27;;;;;;;34.05;19.48;;;2.70;99.90;;;;;;5026227;28;20025;-52
2021/01/20 05:37:08;;;;;;;33.22;18.92;;;2.80;99.90;;;;;;5025492;28;20049;-55
2021/01/20 05:39:34;;;;;;;32.15;18.05;;;2.80;99.90;;;;;;5031041;28;20034;-52
2021/01/20 05:42:08;;;;;;;35.25;18.63;;;2.70;99.90;;;;;;5028299;28;20072;-55
2021/01/20 05:44:35;;;;;;;36.00;19.65;;;2.80;99.90;;;;;;5030836;28;20049;-53
2021/01/20 05:47:13;;;;;;;31.50;18.52;;;2.80;99.90;;;;;;5025319;28;20029;-53
2021/01/20 05:49:40;;;;;;;36.75;18.50;;;2.80;99.90;;;;;;5030615;28;20041;-53
2021/01/20 05:52:16;;;;;;;38.33;18.65;;;2.80;99.90;;;;;;5029291;28;20120;-54
2021/01/20 05:54:42;;;;;;;36.85;18.73;;;2.80;99.90;;;;;;5029595;28;20033;-54
2021/01/20 05:57:20;;;;;;;37.08;20.05;;;2.80;99.90;;;;;;5030421;28;20037;-57
2021/01/20 05:59:52;;;;;;;33.22;19.85;;;2.90;99.90;;;;;;5029579;28;20075;-55
2021/01/20 06:02:19;;;;;;;35.65;19.92;;;2.90;99.90;;;;;;5029532;28;20049;-53
2021/01/20 06:04:45;;;;;;;38.08;19.40;;;2.90;99.90;;;;;;5029691;28;20145;-56
2021/01/20 06:07:14;;;;;;;36.65;19.73;;;2.90;99.90;;;;;;5030239;28;20035;-53
2021/01/20 06:09:41;;;;;;;39.25;20.30;;;3.00;99.90;;;;;;5029699;28;20200;-53
2021/01/20 06:12:09;;;;;;;36.55;19.63;;;3.00;99.90;;;;;;5028777;28;20400;-56
2021/01/20 06:14:36;;;;;;;32.45;17.70;;;3.00;99.90;;;;;;5029141;28;20033;-54
2021/01/20 06:17:34;;;;;;;33.08;18.75;;;3.00;99.90;;;;;;5027577;28;20509;-54
2021/01/20 06:20:03;;;;;;;33.00;18.35;;;3.00;99.90;;;;;;5036802;28;20087;-52
2021/01/20 06:22:31;;;;;;;33.65;18.00;;;2.90;99.90;;;;;;5028559;28;20461;-54
2021/01/20 06:25:15;;;;;;;36.88;18.98;;;2.90;99.90;;;;;;5029929;28;20033;-52
2021/01/20 06:27:58;;;;;;;32.10;18.73;;;2.90;99.90;;;;;;5028900;28;20033;-54
2021/01/20 06:30:32;;;;;;;31.02;17.10;;;2.90;99.90;;;;;;5025167;28;20072;-54
2021/01/20 06:32:59;;;;;;;31.70;18.38;;;2.80;99.90;;;;;;5027580;28;20048;-55
2021/01/20 06:35:43;;;;;;;33.50;18.17;;;2.80;99.90;;;;;;5029925;28;20109;-56
2021/01/20 06:38:27;;;;;;;29.65;17.60;;;2.80;99.90;;;;;;5029594;28;20045;-55
2021/01/20 06:40:57;;;;;;;36.08;19.25;;;2.70;99.90;;;;;;5028792;28;20574;-56
2021/01/20 06:43:34;;;;;;;32.88;17.42;;;2.80;99.90;;;;;;5027936;28;20540;-56
2021/01/20 06:46:22;;;;;;;33.63;19.65;;;2.80;99.90;;;;;;5025250;28;20052;-56
2021/01/20 06:49:09;;;;;;;34.90;17.67;;;2.70;99.90;;;;;;5022558;28;20028;-56
2021/01/20 06:51:35;;;;;;;;;;;2.80;99.90;;;;;;5023459;28;20036;-55
2021/01/20 06:54:12;;;;;;;35.67;18.27;;;2.80;99.90;;;;;;5031728;28;19975;-54
2021/01/20 06:56:45;;;;;;;38.42;18.58;;;2.80;99.90;;;;;;5029205;28;20271;-53
2021/01/20 06:59:16;;;;;;;39.22;19.65;;;2.80;99.90;;;;;;5026372;28;20574;-57
2021/01/20 07:02:02;;;;;;;38.22;18.50;;;2.80;99.90;;;;;;5022040;28;20043;-55
2021/01/20 07:04:37;;;;;;;33.70;18.35;;;2.80;99.90;;;;;;5029112;28;20034;-57
2021/01/20 07:07:13;;;;;;;32.63;18.02;;;2.80;99.90;;;;;;5026825;28;20037;-55
2021/01/20 07:09:51;;;;;;;38.70;16.90;;;2.80;99.90;;;;;;5029037;28;20173;-56
2021/01/20 07:12:19;;;;;;;32.30;18.33;;;2.80;99.90;;;;;;5017824;28;20376;-57
2021/01/20 07:14:46;;;;;;;42.95;20.70;;;2.80;99.90;;;;;;5028965;28;20037;-58
2021/01/20 07:17:12;;;;;;;39.65;19.10;;;2.90;99.90;;;;;;5026058;28;20044;-56
2021/01/20 07:19:40;;;;;;;35.40;19.95;;;2.80;99.90;;;;;;5029552;28;20048;-55
2021/01/20 07:22:06;;;;;;;30.65;19.33;;;2.90;99.90;;;;;;5012756;28;20513;-58
2021/01/20 07:24:32;;;;;;;38.90;20.70;;;2.90;99.90;;;;;;5028911;28;20559;-54
2021/01/20 07:27:12;;;;;;;41.70;21.13;;;2.90;99.90;;;;;;5026359;28;20373;-57
2021/01/20 07:29:39;;;;;;;41.13;20.88;;;3.00;99.90;;;;;;5028869;28;20037;-57
2021/01/20 07:32:05;;;;;;;35.95;20.80;;;3.00;99.90;;;;;;5007944;28;20064;-57
2021/01/20 07:34:42;;;;;;;42.22;21.30;;;3.00;99.90;;;;;;5019843;28;20038;-57
2021/01/20 07:37:10;;;;;;;37.65;19.67;;;3.10;99.90;;;;;;5026141;28;20113;-55
2021/01/20 07:39:36;;;;;;;42.65;20.63;;;3.10;99.90;;;;;;5028856;28;20037;-57
2021/01/20 07:42:03;;;;;;;36.83;20.60;;;3.10;99.90;;;;;;5026829;28;20041;-56
2021/01/20 07:44:29;;;;;;;35.53;19.50;;;3.10;99.90;;;;;;5016870;28;20648;-57
2021/01/20 07:46:58;;;;;;;38.20;19.45;;;3.10;99.90;;;;;;5009345;28;20032;-55
2021/01/20 07:49:24;;;;;;;40.83;20.92;;;3.10;99.90;;;;;;5008938;28;20029;-59
2021/01/20 07:52:09;;;;;;;31.63;18.85;;;3.10;99.90;;;;;;5003481;28;20033;-56
2021/01/20 07:54:35;;;;;;;30.77;18.27;;;3.10;99.90;;;;;;4997749;28;20036;-57
2021/01/20 07:57:01;;;;;;;34.70;19.00;;;3.10;99.90;;;;;;5029067;28;20046;-55
2021/01/20 07:59:27;;;;;;;37.20;18.42;;;3.00;99.90;;;;;;5029298;28;20107;-58
2021/01/20 08:02:04;;;;;;;31.23;18.20;;;3.00;99.90;;;;;;5009040;28;20210;-57
2021/01/20 08:04:30;;;;;;;31.02;18.85;;;3.10;99.90;;;;;;5007717;28;20049;-56
2021/01/20 08:06:55;;;;;;;36.10;18.75;;;3.10;99.90;;;;;;5013558;28;20041;-56
2021/01/20 08:09:33;;;;;;;30.27;18.05;;;3.10;99.90;;;;;;5000585;28;20050;-56
2021/01/20 08:11:59;;;;;;;30.63;18.05;;;3.10;99.90;;;;;;5007568;28;20030;-58
2021/01/20 08:14:25;;;;;;;35.35;19.50;;;3.10;99.90;;;;;;5032113;28;20095;-56
2021/01/20 08:16:51;;;;;;;35.08;19.25;;;3.10;99.90;;;;;;5009492;28;20397;-57
2021/01/20 08:19:19;;;;;;;37.58;19.95;;;3.20;99.90;;;;;;5022288;28;20041;-57
2021/01/20 08:21:45;;;;;;;38.33;21.05;;;3.20;99.90;;;;;;5008700;28;20049;-55
2021/01/20 08:24:22;;;;;;;37.88;21.10;;;3.30;99.90;;;;;;5002734;28;20485;-56
2021/01/20 08:27:00;;;;;;;34.70;20.48;;;3.30;99.90;;;;;;5007651;28;20037;-55
2021/01/20 08:29:27;;;;;;;38.20;19.70;;;3.30;99.90;;;;;;5009708;28;20053;-55
2021/01/20 08:32:10;;;;;;;36.60;20.52;;;3.40;99.90;;;;;;5009389;28;20680;-57
2021/01/20 08:34:36;;;;;;;39.85;20.08;;;3.40;99.90;;;;;;5011011;28;20098;-55
2021/01/20 08:37:08;;;;;;;35.30;19.50;;;3.40;99.90;;;;;;5008714;28;20073;-55
2021/01/20 08:39:38;;;;;;;40.03;19.40;;;3.40;99.90;;;;;;5014331;28;20033;-54
2021/01/20 08:42:16;;;;;;;34.72;18.55;;;3.40;99.90;;;;;;5012470;28;20378;-58
2021/01/20 08:45:06;;;;;;;35.92;20.50;;;3.40;99.90;;;;;;5012087;28;20501;-55
2021/01/20 08:47:45;;;;;;;37.33;20.98;;;3.40;99.90;;;;;;4995303;28;20389;-56
2021/01/20 08:50:34;;;;;;;34.67;18.63;;;3.40;99.90;;;;;;4992430;28;20390;-57
2021/01/20 08:53:24;;;;;;;41.70;21.05;;;3.40;99.90;;;;;;5005577;28;20096;-56
2021/01/20 08:55:52;;;;;;;36.78;18.75;;;3.40;99.90;;;;;;5031842;28;20069;-57
2021/01/20 08:58:24;;;;;;;36.65;19.75;;;3.40;99.90;;;;;;5021376;28;20037;-57
2021/01/20 09:00:53;;;;;;;41.67;19.77;;;3.40;99.90;;;;;;5008682;28;20482;-53
2021/01/20 09:03:21;;;;;;;49.08;21.95;;;3.40;99.90;;;;;;5019479;28;20021;-57
2021/01/20 09:05:49;;;;;;;51.50;24.75;;;3.40;99.90;;;;;;5022422;28;20500;-55
2021/01/20 09:08:15;;;;;;;64.43;29.90;;;3.40;99.90;;;;;;5026298;28;20096;-56
2021/01/20 09:10:42;;;;;;;59.85;28.88;;;3.50;99.90;;;;;;5016860;28;20034;-55
2021/01/20 09:13:08;;;;;;;50.30;25.60;;;3.60;99.90;;;;;;5004752;28;20057;-57
2021/01/20 09:15:34;;;;;;;40.08;21.98;;;3.60;99.90;;;;;;5024373;28;20129;-55
2021/01/20 09:18:00;;;;;;;44.95;24.27;;;3.60;99.90;;;;;;5004085;28;20121;-57
2021/01/20 09:20:26;;;;;;;42.25;23.52;;;3.70;99.90;;;;;;5009123;28;20128;-51
2021/01/20 09:22:52;;;;;;;39.70;21.08;;;3.70;99.90;;;;;;5005385;28;20076;-56
2021/01/20 09:25:18;;;;;;;36.40;20.55;;;3.70;99.90;;;;;;5014254;28;20038;-55
2021/01/20 09:27:44;;;;;;;41.72;22.17;;;3.70;99.90;;;;;;5011156;28;20025;-57
2021/01/20 09:30:10;;;;;;;41.00;23.10;;;3.70;99.90;;;;;;5026626;28;20049;-57
2021/01/20 09:32:40;;;;;;;41.30;23.63;;;3.70;99.90;;;;;;5001646;28;20497;-55
2021/01/20 09:35:12;;;;;;;41.15;20.65;;;3.70;99.90;;;;;;5016888;28;20669;-57
2021/01/20 09:37:39;;;;;;;39.08;20.42;;;3.70;99.90;;;;;;5027863;28;20042;-53
2021/01/20 09:40:08;;;;;;;35.05;21.25;;;3.60;99.90;;;;;;5023359;28;20037;-53
2021/01/20 09:42:35;;;;;;;38.70;21.45;;;3.50;99.90;;;;;;5012792;28;20107;-55
2021/01/20 09:45:01;;;;;;;39.30;20.70;;;3.50;99.90;;;;;;5012096;28;20497;-58
2021/01/20 09:47:27;;;;;;;36.40;20.77;;;3.40;99.90;;;;;;5011738;28;20108;-53
2021/01/20 09:49:52;;;;;;;39.90;21.35;;;3.40;99.90;;;;;;5006949;28;20403;-57
2021/01/20 09:52:18;;;;;;;35.50;20.52;;;3.40;99.90;;;;;;5011112;28;20040;-53
2021/01/20 09:54:44;;;;;;;34.40;19.92;;;3.40;99.90;;;;;;5022107;28;20106;-54
2021/01/20 09:57:10;;;;;;;36.22;20.65;;;3.30;99.90;;;;;;5027132;28;20386;-57
2021/01/20 09:59:36;;;;;;;36.42;19.52;;;3.30;99.90;;;;;;5030385;28;20034;-56
2021/01/20 10:02:01;;;;;;;35.30;20.00;;;3.30;99.90;;;;;;5030354;28;20033;-57
2021/01/20 10:04:27;;;;;;;34.15;19.92;;;3.30;99.90;;;;;;5030490;28;20033;-56
2021/01/20 10:06:53;;;;;;;39.80;21.70;;;3.30;99.90;;;;;;5030222;28;20029;-55
2021/01/20 10:09:21;;;;;;;38.80;20.95;;;3.30;99.90;;;;;;5030352;28;20098;-57
2021/01/20 10:11:49;;;;;;;40.38;21.10;;;3.30;99.90;;;;;;5030486;28;20033;-57
2021/01/20 10:14:17;;;;;;;41.80;21.27;;;3.30;99.90;;;;;;5029969;28;20036;-55
2021/01/20 10:16:46;;;;;;;32.40;19.60;;;3.30;99.90;;;;;;5029811;28;20049;-57
2021/01/20 10:19:13;;;;;;;35.58;21.50;;;3.20;99.90;;;;;;5012521;28;20036;-56
2021/01/20 10:21:39;;;;;;;37.92;20.92;;;3.20;99.90;;;;;;5030004;28;20087;-56
2021/01/20 10:24:05;;;;;;;36.05;20.88;;;3.20;99.90;;;;;;5030042;28;20033;-56
2021/01/20 10:26:31;;;;;;;39.33;21.48;;;3.10;99.90;;;;;;5029874;28;20118;-56
2021/01/20 10:28:57;;;;;;;39.90;23.13;;;3.20;99.90;;;;;;5029933;28;20549;-55
2021/01/20 10:31:22;;;;;;;40.60;22.52;;;3.20;99.90;;;;;;5021322;28;20553;-56
2021/01/20 10:33:48;;;;;;;37.35;21.60;;;3.20;99.90;;;;;;4993261;28;20034;-57
2021/01/20 10:36:14;;;;;;;38.33;22.58;;;3.30;99.90;;;;;;4989369;28;20305;-56
2021/01/20 10:38:40;;;;;;;37.50;20.38;;;3.30;99.90;;;;;;4990316;28;20050;-56
2021/01/20 10:41:05;;;;;;;38.63;21.58;;;3.30;99.90;;;;;;4990492;28;20042;-56
2021/01/20 10:43:31;;;;;;;37.15;19.83;;;3.30;99.90;;;;;;4992989;28;20061;-56
2021/01/20 10:45:58;;;;;;;36.92;20.63;;;3.30;99.90;;;;;;4992222;28;20405;-56
2021/01/20 10:48:25;;;;;;;34.67;20.13;;;3.30;99.90;;;;;;5009768;28;20037;-57
2021/01/20 10:50:51;;;;;;;33.47;19.05;;;3.30;99.90;;;;;;5009781;28;20030;-55
2021/01/20 10:53:16;;;;;;;34.80;20.38;;;3.30;99.90;;;;;;5009841;28;20037;-55
2021/01/20 10:55:42;;;;;;;34.30;19.65;;;3.30;99.90;;;;;;5009752;28;20069;-56
2021/01/20 10:58:08;;;;;;;35.03;20.17;;;3.40;99.90;;;;;;5009580;28;20038;-57
2021/01/20 11:00:33;;;;;;;37.08;21.98;;;3.40;99.90;;;;;;5009892;28;20112;-57
2021/01/20 11:02:59;;;;;;;37.50;21.55;;;3.40;99.90;;;;;;5009642;28;20026;-55
2021/01/20 11:05:25;;;;;;;37.70;21.50;;;3.40;99.90;;;;;;5009728;28;20113;-57
2021/01/20 11:07:51;;;;;;;36.53;21.23;;;3.50;99.90;;;;;;5009593;28;20517;-57
2021/01/20 11:10:16;;;;;;;42.97;21.88;;;3.40;99.90;;;;;;5009591;28;20058;-56
2021/01/20 11:12:45;;;;;;;39.00;21.85;;;3.40;99.90;;;;;;5009413;28;20490;-57
2021/01/20 11:15:11;;;;;;;37.72;20.33;;;3.40;99.90;;;;;;5026075;28;20033;-55
2021/01/20 11:17:37;;;;;;;36.45;20.63;;;3.30;99.90;;;;;;5020334;28;20045;-56
2021/01/20 11:20:03;;;;;;;40.03;21.52;;;3.30;99.90;;;;;;5025278;28;20076;-56
2021/01/20 11:22:28;;;;;;;44.30;21.95;;;3.30;99.90;;;;;;5021778;28;20041;-57
2021/01/20 11:25:00;;;;;;;37.75;20.48;;;3.30;99.90;;;;;;5026019;28;20034;-56
2021/01/20 11:27:27;;;;;;;36.47;19.67;;;3.20;99.90;;;;;;5028576;28;20041;-57
2021/01/20 11:29:53;;;;;;;36.38;20.52;;;3.30;99.90;;;;;;5028727;28;20502;-55
2021/01/20 11:32:19;;;;;;;39.38;20.50;;;3.30;99.90;;;;;;5029190;28;20412;-55
2021/01/20 11:34:45;;;;;;;39.33;19.98;;;3.30;99.90;;;;;;5029096;28;20500;-56
2021/01/20 11:37:11;;;;;;;36.08;20.90;;;3.30;99.90;;;;;;5028889;28;20045;-57
2021/01/20 11:39:37;;;;;;;33.83;20.38;;;3.20;99.90;;;;;;5028749;28;20033;-57
2021/01/20 11:42:03;;;;;;;39.78;20.30;;;3.20;99.90;;;;;;5025604;28;20061;-57
2021/01/20 11:44:29;;;;;;;38.60;21.85;;;3.20;99.90;;;;;;5014034;28;20046;-57
2021/01/20 11:46:55;;;;;;;37.50;19.90;;;3.30;99.90;;;;;;5025284;28;20041;-55
2021/01/20 11:49:21;;;;;;;34.15;20.60;;;3.30;99.90;;;;;;5023243;28;20022;-55
2021/01/20 11:51:46;;;;;;;39.15;21.48;;;3.30;99.90;;;;;;5039186;28;20037;-54
2021/01/20 11:54:12;;;;;;;38.05;20.63;;;3.30;99.90;;;;;;5041882;28;20460;-56
2021/01/20 11:56:38;;;;;;;42.50;22.60;;;3.40;99.90;;;;;;5048460;28;20424;-58
2021/01/20 11:59:04;;;;;;;39.80;22.35;;;3.30;99.90;;;;;;5048410;28;20078;-54
2021/01/20 12:01:33;;;;;;;44.70;22.70;;;3.40;99.90;;;;;;5048456;28;20392;-57
2021/01/20 12:04:00;;;;;;;40.72;22.92;;;3.40;99.90;;;;;;5048160;28;20109;-57
2021/01/20 12:06:26;;;;;;;45.85;22.50;;;3.50;99.90;;;;;;5034361;28;20576;-57
2021/01/20 12:08:51;;;;;;;42.97;23.75;;;3.50;99.90;;;;;;5028420;28;20033;-55
2021/01/20 12:11:17;;;;;;;35.90;21.48;;;3.50;99.90;;;;;;5028254;28;20496;-57
2021/01/20 12:13:43;;;;;;;36.42;21.45;;;3.60;99.90;;;;;;5028350;28;20471;-55
2021/01/20 12:16:09;;;;;;;37.63;20.40;;;3.50;99.90;;;;;;5028239;28;20132;-55
2021/01/20 12:18:34;;;;;;;39.22;21.73;;;3.50;99.90;;;;;;5028166;28;20045;-52
2021/01/20 12:21:02;;;;;;;39.22;21.33;;;3.50;99.90;;;;;;5030123;28;20140;-54
2021/01/20 12:23:27;;;;;;;38.17;22.80;;;3.40;99.90;;;;;;5040750;28;20031;-57
2021/01/20 12:25:53;;;;;;;40.67;22.13;;;3.40;99.90;;;;;;5048157;28;20090;-53
2021/01/20 12:28:19;;;;;;;43.13;22.23;;;3.40;99.90;;;;;;5048050;28;20036;-57
2021/01/20 12:30:45;;;;;;;43.13;21.98;;;3.40;99.90;;;;;;5048149;28;20029;-53
2021/01/20 12:33:11;;;;;;;42.15;23.95;;;3.40;99.90;;;;;;5048052;28;20033;-53
2021/01/20 12:35:36;;;;;;;42.35;23.15;;;3.40;99.90;;;;;;5031982;28;20168;-56
2021/01/20 12:38:03;;;;;;;45.38;24.42;;;3.50;99.90;;;;;;5027694;28;20034;-56
2021/01/20 12:40:29;;;;;;;42.53;22.65;;;3.60;99.90;;;;;;5028345;28;20040;-56
2021/01/20 12:42:55;;;;;;;40.85;20.88;;;3.70;99.90;;;;;;5041082;28;20099;-57
2021/01/20 12:45:21;;;;;;;40.80;22.30;;;3.80;99.90;;;;;;5048118;28;20033;-54
2021/01/20 12:47:47;;;;;;;36.30;21.83;;;3.80;99.90;;;;;;5048079;28;20781;-56
2021/01/20 12:50:13;;;;;;;36.58;21.30;;;3.80;99.90;;;;;;5048070;28;20115;-56